CYZFCYFS

Guest
Details From CYZF - YELLOWKNIFE
To CYFS - FORT SIMPSON
Flight Number -
Tags generated
Created
Modified
Stats Distance 199 nm / 368 km
Max Altitude 16,700 ft / 5,090 m
Waypoints 4
Social Downloads 0
Likes 0
Share VATSIM

Download

Looking for another format? Having issues loading an existing format? Contact us
Advertisement - Login to hide

Notes

Basic altitude profile: - Ascent Rate: 2500ft/min - Ascent Speed: 250kts - Cruise Altitude: 35000ft - Cruise Speed: 420kts - Descent Rate: 1500ft/min - Descent Speed: 250kts Options: - Use NATs: yes - Use PACOTS: yes - Use low airways: yes - Use high airways: yes

Route

CYZF BAMPS V339 YFS CYFS

ID Type Via Altitude Latitude Longitude Leg Dist Tot Dist Heading (true) Name
O CYZF APT - 0 ft / 0 m 62.46567˚ -114.44142˚ - 0 nm - YELLOWKNIFE
BAMPS FIX - 16,700 ft / 5,090 m 62.32222˚ -116.20056˚ 49 nm 49 nm 261° / 259° -
YFS VOR V339 (AWY-LO) 12,000 ft / 3,658 m 61.77386˚ -121.29878˚ 147 nm 196 nm 259° / 255° FORT SIMPSON VOR-DME
O CYFS APT - 0 ft / 0 m 61.76028˚ -121.23667˚ 1 nm 198 nm 115° / 115° FORT SIMPSON

Altitude Profile

Advertisement - Login to hide

Weather


0- 5 10 15 20 25 30 35+ Temperature / ° C

Clouds and Precipitation
Forecast for 2017-12-17 06:00 UTC. Updated an hour ago

Ground ~20,000 ft ~40,000 ft Winds

CYZF

Details ICAO CYZF (YZF)
Name YELLOWKNIFE
Region Canada
Timezone America/Yellowknife (UTC-7.0)
Stats Elevation 675 ft / 206 m (AMSL)
Location 62.465666° -114.441417°
Runways 2
Magnetic Variation 16.583° E

METAR

CYZF 170600Z 14015G25KT 15SM -SN DRSN OVC010 M13/M14 A2931 RMK SC8 SLP949

Decode

TAF

TAF CYZF 170538Z 1706/1806 14015G25KT 6SM -SN SCT006 OVC012 TEMPO 1706/1711 2SM -SHSN BKN006 OVC009 FM171100 15012KT P6SM -SN SCT012 BKN040 FM171500 16008KT P6SM -SN SCT008 BKN015 BECMG 1716/1718 30008KT RMK NXT FCST BY 171200Z

Decode

Departure Runways

ID Width Length Bearing (true) Bearing (mag) Surface Threshold Offset Overrun Length
09 150 ft / 46 m 4,902 ft / 1,494 m 116.52° 99.94° Asphalt 0 ft / 0 m 0 ft / 0 m
15 150 ft / 46 m 7,441 ft / 2,268 m 175.66° 159.08° Asphalt 0 ft / 0 m 0 ft / 0 m
27 150 ft / 46 m 4,902 ft / 1,494 m 296.54° 279.96° Asphalt 0 ft / 0 m 0 ft / 0 m
33 150 ft / 46 m 7,441 ft / 2,268 m 355.67° 339.09° Asphalt 0 ft / 0 m 0 ft / 0 m

CYFS

Details ICAO CYFS (YFS)
Name FORT SIMPSON
Region Canada
Timezone America/Yellowknife (UTC-7.0)
Stats Elevation 555 ft / 169 m (AMSL)
Location 61.760281° -121.236665°
Runways 1
Magnetic Variation 19.163° E

METAR

CYFS 170600Z 14003KT 080V160 15SM FEW240 M12/M13 A2917 RMK CI2 SLP896

Decode

TAF

TAF CYFS 170538Z 1706/1718 14005KT P6SM SCT140 BKN200 BECMG 1708/1710 32010KT RMK NXT FCST BY 171200Z

Decode

Destination Runways

ID Width Length Bearing (true) Bearing (mag) Surface Threshold Offset Overrun Length
13 150 ft / 46 m 5,986 ft / 1,825 m 156.01° 136.85° Asphalt 0 ft / 0 m 0 ft / 0 m
31 150 ft / 46 m 5,986 ft / 1,825 m 336.02° 316.86° Asphalt 0 ft / 0 m 0 ft / 0 m

Popular Alternatives